sensor_id;sensor_type;location;lat;lon;timestamp;P1;durP1;ratioP1;P2;durP2;ratioP2
21120;SDS011;12519;43.318;21.898;2022-08-25T00:00:55;46.0;;;24.0;;
21120;SDS011;12519;43.318;21.898;2022-08-25T00:05:32;46.0;;;24.0;;
21120;SDS011;12519;43.318;21.898;2022-08-25T00:10:10;38.0;;;23.0;;
21120;SDS011;12519;43.318;21.898;2022-08-25T00:14:47;38.0;;;23.0;;
21120;SDS011;12519;43.318;21.898;2022-08-25T00:19:30;29.0;;;22.0;;
21120;SDS011;12519;43.318;21.898;2022-08-25T00:24:16;29.0;;;22.0;;
21120;SDS011;12519;43.318;21.898;2022-08-25T00:28:57;29.0;;;22.0;;
21120;SDS011;12519;43.318;21.898;2022-08-25T00:33:34;27.0;;;22.0;;
21120;SDS011;12519;43.318;21.898;2022-08-25T00:38:11;27.0;;;22.0;;
21120;SDS011;12519;43.318;21.898;2022-08-25T00:42:49;25.0;;;22.0;;
21120;SDS011;12519;43.318;21.898;2022-08-25T00:47:25;25.0;;;22.0;;
21120;SDS011;12519;43.318;21.898;2022-08-25T00:52:10;24.0;;;22.0;;
21120;SDS011;12519;43.318;21.898;2022-08-25T00:56:59;24.0;;;22.0;;
21120;SDS011;12519;43.318;21.898;2022-08-25T01:01:41;23.0;;;21.0;;
21120;SDS011;12519;43.318;21.898;2022-08-25T01:06:18;23.0;;;21.0;;
21120;SDS011;12519;43.318;21.898;2022-08-25T01:10:58;25.0;;;21.0;;
21120;SDS011;12519;43.318;21.898;2022-08-25T01:15:45;25.0;;;21.0;;
21120;SDS011;12519;43.318;21.898;2022-08-25T01:20:32;27.0;;;21.0;;
21120;SDS011;12519;43.318;21.898;2022-08-25T01:25:24;27.0;;;21.0;;
21120;SDS011;12519;43.318;21.898;2022-08-25T01:30:45;28.0;;;22.0;;
21120;SDS011;12519;43.318;21.898;2022-08-25T01:35:25;28.0;;;22.0;;
21120;SDS011;12519;43.318;21.898;2022-08-25T01:40:04;29.0;;;22.0;;
21120;SDS011;12519;43.318;21.898;2022-08-25T01:44:47;29.0;;;22.0;;
21120;SDS011;12519;43.318;21.898;2022-08-25T01:49:26;29.0;;;22.0;;
21120;SDS011;12519;43.318;21.898;2022-08-25T01:54:04;26.0;;;20.0;;
21120;SDS011;12519;43.318;21.898;2022-08-25T01:58:45;26.0;;;20.0;;
21120;SDS011;12519;43.318;21.898;2022-08-25T02:03:26;23.0;;;19.0;;
21120;SDS011;12519;43.318;21.898;2022-08-25T02:08:08;23.0;;;19.0;;
21120;SDS011;12519;43.318;21.898;2022-08-25T02:12:46;23.0;;;20.0;;
21120;SDS011;12519;43.318;21.898;2022-08-25T02:17:24;23.0;;;20.0;;
21120;SDS011;12519;43.318;21.898;2022-08-25T02:22:01;23.0;;;22.0;;
21120;SDS011;12519;43.318;21.898;2022-08-25T02:26:40;23.0;;;22.0;;
21120;SDS011;12519;43.318;21.898;2022-08-25T02:31:21;24.0;;;22.0;;
21120;SDS011;12519;43.318;21.898;2022-08-25T02:36:02;24.0;;;22.0;;
21120;SDS011;12519;43.318;21.898;2022-08-25T02:40:41;25.0;;;21.0;;
21120;SDS011;12519;43.318;21.898;2022-08-25T02:45:18;25.0;;;21.0;;
21120;SDS011;12519;43.318;21.898;2022-08-25T02:49:55;27.0;;;22.0;;
21120;SDS011;12519;43.318;21.898;2022-08-25T02:54:32;27.0;;;22.0;;
21120;SDS011;12519;43.318;21.898;2022-08-25T02:59:10;27.0;;;22.0;;
21120;SDS011;12519;43.318;21.898;2022-08-25T03:03:48;29.0;;;22.0;;
21120;SDS011;12519;43.318;21.898;2022-08-25T03:08:29;29.0;;;22.0;;
21120;SDS011;12519;43.318;21.898;2022-08-25T03:13:06;30.0;;;22.0;;
21120;SDS011;12519;43.318;21.898;2022-08-25T03:17:43;30.0;;;22.0;;
21120;SDS011;12519;43.318;21.898;2022-08-25T03:22:23;32.0;;;23.0;;
21120;SDS011;12519;43.318;21.898;2022-08-25T03:26:59;32.0;;;23.0;;
21120;SDS011;12519;43.318;21.898;2022-08-25T03:31:36;33.0;;;24.0;;
21120;SDS011;12519;43.318;21.898;2022-08-25T03:36:14;33.0;;;24.0;;
21120;SDS011;12519;43.318;21.898;2022-08-25T03:40:52;34.0;;;25.0;;
21120;SDS011;12519;43.318;21.898;2022-08-25T03:45:29;34.0;;;25.0;;
21120;SDS011;12519;43.318;21.898;2022-08-25T03:50:10;32.0;;;24.0;;
21120;SDS011;12519;43.318;21.898;2022-08-25T03:54:51;32.0;;;24.0;;
21120;SDS011;12519;43.318;21.898;2022-08-25T03:59:28;32.0;;;24.0;;
21120;SDS011;12519;43.318;21.898;2022-08-25T04:04:08;29.0;;;24.0;;
21120;SDS011;12519;43.318;21.898;2022-08-25T04:08:50;29.0;;;24.0;;
21120;SDS011;12519;43.318;21.898;2022-08-25T04:13:28;28.0;;;23.0;;
21120;SDS011;12519;43.318;21.898;2022-08-25T04:18:05;28.0;;;23.0;;
21120;SDS011;12519;43.318;21.898;2022-08-25T04:22:43;26.0;;;22.0;;
21120;SDS011;12519;43.318;21.898;2022-08-25T04:27:21;26.0;;;22.0;;
21120;SDS011;12519;43.318;21.898;2022-08-25T04:31:58;26.0;;;22.0;;
21120;SDS011;12519;43.318;21.898;2022-08-25T04:36:36;26.0;;;22.0;;
21120;SDS011;12519;43.318;21.898;2022-08-25T04:41:19;26.0;;;23.0;;
21120;SDS011;12519;43.318;21.898;2022-08-25T04:46:05;26.0;;;23.0;;
21120;SDS011;12519;43.318;21.898;2022-08-25T04:50:57;28.0;;;22.0;;
21120;SDS011;12519;43.318;21.898;2022-08-25T04:55:49;28.0;;;22.0;;
21120;SDS011;12519;43.318;21.898;2022-08-25T05:00:26;29.0;;;22.0;;
21120;SDS011;12519;43.318;21.898;2022-08-25T05:05:04;29.0;;;22.0;;
21120;SDS011;12519;43.318;21.898;2022-08-25T05:09:42;29.0;;;22.0;;
21120;SDS011;12519;43.318;21.898;2022-08-25T05:14:20;28.0;;;22.0;;
21120;SDS011;12519;43.318;21.898;2022-08-25T05:18:59;28.0;;;22.0;;
21120;SDS011;12519;43.318;21.898;2022-08-25T05:23:36;27.0;;;21.0;;
21120;SDS011;12519;43.318;21.898;2022-08-25T05:28:16;27.0;;;21.0;;
21120;SDS011;12519;43.318;21.898;2022-08-25T05:32:55;29.0;;;22.0;;
21120;SDS011;12519;43.318;21.898;2022-08-25T05:37:32;29.0;;;22.0;;
21120;SDS011;12519;43.318;21.898;2022-08-25T05:42:09;31.0;;;22.0;;
21120;SDS011;12519;43.318;21.898;2022-08-25T05:46:45;31.0;;;22.0;;
21120;SDS011;12519;43.318;21.898;2022-08-25T05:51:22;32.0;;;22.0;;
21120;SDS011;12519;43.318;21.898;2022-08-25T05:56:00;32.0;;;22.0;;
21120;SDS011;12519;43.318;21.898;2022-08-25T06:00:39;34.0;;;22.0;;
21120;SDS011;12519;43.318;21.898;2022-08-25T06:05:20;34.0;;;22.0;;
21120;SDS011;12519;43.318;21.898;2022-08-25T06:09:58;34.0;;;22.0;;
21120;SDS011;12519;43.318;21.898;2022-08-25T06:14:34;31.0;;;22.0;;
21120;SDS011;12519;43.318;21.898;2022-08-25T06:19:11;31.0;;;22.0;;
21120;SDS011;12519;43.318;21.898;2022-08-25T06:23:47;28.0;;;22.0;;
21120;SDS011;12519;43.318;21.898;2022-08-25T06:28:24;28.0;;;22.0;;
21120;SDS011;12519;43.318;21.898;2022-08-25T06:33:01;34.0;;;24.0;;
21120;SDS011;12519;43.318;21.898;2022-08-25T06:37:38;34.0;;;24.0;;
21120;SDS011;12519;43.318;21.898;2022-08-25T06:42:15;41.0;;;27.0;;
21120;SDS011;12519;43.318;21.898;2022-08-25T06:46:52;41.0;;;27.0;;
21120;SDS011;12519;43.318;21.898;2022-08-25T06:51:29;41.0;;;28.0;;
21120;SDS011;12519;43.318;21.898;2022-08-25T06:56:07;41.0;;;28.0;;
21120;SDS011;12519;43.318;21.898;2022-08-25T07:00:48;41.0;;;28.0;;
21120;SDS011;12519;43.318;21.898;2022-08-25T07:05:25;41.0;;;28.0;;
21120;SDS011;12519;43.318;21.898;2022-08-25T07:10:08;41.0;;;28.0;;
21120;SDS011;12519;43.318;21.898;2022-08-25T07:14:47;40.0;;;28.0;;
21120;SDS011;12519;43.318;21.898;2022-08-25T07:19:25;40.0;;;28.0;;
21120;SDS011;12519;43.318;21.898;2022-08-25T07:24:06;40.0;;;29.0;;
21120;SDS011;12519;43.318;21.898;2022-08-25T07:28:50;40.0;;;29.0;;
21120;SDS011;12519;43.318;21.898;2022-08-25T07:33:30;38.0;;;28.0;;
21120;SDS011;12519;43.318;21.898;2022-08-25T07:38:09;38.0;;;28.0;;
21120;SDS011;12519;43.318;21.898;2022-08-25T07:42:48;36.0;;;26.0;;
21120;SDS011;12519;43.318;21.898;2022-08-25T07:47:33;36.0;;;26.0;;
21120;SDS011;12519;43.318;21.898;2022-08-25T07:52:10;37.0;;;26.0;;
21120;SDS011;12519;43.318;21.898;2022-08-25T07:56:46;37.0;;;26.0;;
21120;SDS011;12519;43.318;21.898;2022-08-25T08:01:24;38.0;;;27.0;;
21120;SDS011;12519;43.318;21.898;2022-08-25T08:06:07;38.0;;;27.0;;
21120;SDS011;12519;43.318;21.898;2022-08-25T08:10:55;39.0;;;28.0;;
21120;SDS011;12519;43.318;21.898;2022-08-25T08:15:32;39.0;;;28.0;;
21120;SDS011;12519;43.318;21.898;2022-08-25T08:20:11;39.0;;;28.0;;
21120;SDS011;12519;43.318;21.898;2022-08-25T08:24:48;40.0;;;29.0;;
21120;SDS011;12519;43.318;21.898;2022-08-25T08:29:24;40.0;;;29.0;;
21120;SDS011;12519;43.318;21.898;2022-08-25T08:34:01;37.0;;;28.0;;
21120;SDS011;12519;43.318;21.898;2022-08-25T08:38:40;37.0;;;28.0;;
21120;SDS011;12519;43.318;21.898;2022-08-25T08:43:21;34.0;;;28.0;;
21120;SDS011;12519;43.318;21.898;2022-08-25T08:48:25;34.0;;;28.0;;
21120;SDS011;12519;43.318;21.898;2022-08-25T08:53:44;34.0;;;28.0;;
21120;SDS011;12519;43.318;21.898;2022-08-25T08:58:46;34.0;;;28.0;;
21120;SDS011;12519;43.318;21.898;2022-08-25T09:13:26;38.0;;;27.0;;
21120;SDS011;12519;43.318;21.898;2022-08-25T09:19:05;38.0;;;27.0;;
21120;SDS011;12519;43.318;21.898;2022-08-25T09:24:58;38.0;;;27.0;;
21120;SDS011;12519;43.318;21.898;2022-08-25T09:30:09;38.0;;;27.0;;
21120;SDS011;12519;43.318;21.898;2022-08-25T09:34:54;40.0;;;29.0;;
21120;SDS011;12519;43.318;21.898;2022-08-25T09:39:32;40.0;;;29.0;;
21120;SDS011;12519;43.318;21.898;2022-08-25T09:44:30;41.0;;;31.0;;
21120;SDS011;12519;43.318;21.898;2022-08-25T09:49:21;41.0;;;31.0;;
21120;SDS011;12519;43.318;21.898;2022-08-25T09:54:22;40.0;;;31.0;;
21120;SDS011;12519;43.318;21.898;2022-08-25T09:59:28;40.0;;;31.0;;
21120;SDS011;12519;43.318;21.898;2022-08-25T10:04:12;39.0;;;31.0;;
21120;SDS011;12519;43.318;21.898;2022-08-25T10:09:05;39.0;;;31.0;;
21120;SDS011;12519;43.318;21.898;2022-08-25T10:14:20;38.0;;;30.0;;
21120;SDS011;12519;43.318;21.898;2022-08-25T10:19:28;38.0;;;30.0;;
21120;SDS011;12519;43.318;21.898;2022-08-25T10:24:11;37.0;;;28.0;;
21120;SDS011;12519;43.318;21.898;2022-08-25T10:29:22;37.0;;;28.0;;
21120;SDS011;12519;43.318;21.898;2022-08-25T10:35:04;37.0;;;30.0;;
21120;SDS011;12519;43.318;21.898;2022-08-25T10:40:24;37.0;;;30.0;;
21120;SDS011;12519;43.318;21.898;2022-08-25T10:45:24;37.0;;;31.0;;
21120;SDS011;12519;43.318;21.898;2022-08-25T10:50:26;37.0;;;31.0;;
21120;SDS011;12519;43.318;21.898;2022-08-25T10:55:38;42.0;;;31.0;;
21120;SDS011;12519;43.318;21.898;2022-08-25T11:00:40;48.0;;;31.0;;
21120;SDS011;12519;43.318;21.898;2022-08-25T11:05:37;48.0;;;31.0;;
21120;SDS011;12519;43.318;21.898;2022-08-25T11:10:42;48.0;;;31.0;;
21120;SDS011;12519;43.318;21.898;2022-08-25T11:15:41;44.0;;;30.0;;
21120;SDS011;12519;43.318;21.898;2022-08-25T11:20:47;40.0;;;30.0;;
21120;SDS011;12519;43.318;21.898;2022-08-25T11:25:46;40.0;;;30.0;;
21120;SDS011;12519;43.318;21.898;2022-08-25T11:30:28;40.0;;;30.0;;
21120;SDS011;12519;43.318;21.898;2022-08-25T11:35:13;40.0;;;30.0;;
21120;SDS011;12519;43.318;21.898;2022-08-25T11:40:42;40.0;;;30.0;;
21120;SDS011;12519;43.318;21.898;2022-08-25T11:46:22;39.0;;;30.0;;
21120;SDS011;12519;43.318;21.898;2022-08-25T11:51:40;36.0;;;29.0;;
21120;SDS011;12519;43.318;21.898;2022-08-25T11:56:37;36.0;;;29.0;;
21120;SDS011;12519;43.318;21.898;2022-08-25T12:04:16;32.0;;;28.0;;
21120;SDS011;12519;43.318;21.898;2022-08-25T12:09:20;32.0;;;28.0;;
21120;SDS011;12519;43.318;21.898;2022-08-25T12:14:45;41.0;;;30.0;;
21120;SDS011;12519;43.318;21.898;2022-08-25T12:19:50;41.0;;;30.0;;
21120;SDS011;12519;43.318;21.898;2022-08-25T12:24:57;50.0;;;33.0;;
21120;SDS011;12519;43.318;21.898;2022-08-25T12:31:03;44.0;;;32.0;;
21120;SDS011;12519;43.318;21.898;2022-08-25T12:36:36;44.0;;;32.0;;
21120;SDS011;12519;43.318;21.898;2022-08-25T12:41:26;38.0;;;31.0;;
21120;SDS011;12519;43.318;21.898;2022-08-25T12:46:43;38.0;;;31.0;;
21120;SDS011;12519;43.318;21.898;2022-08-25T12:51:26;37.0;;;30.0;;
21120;SDS011;12519;43.318;21.898;2022-08-25T12:56:54;37.0;;;30.0;;
21120;SDS011;12519;43.318;21.898;2022-08-25T13:02:52;36.0;;;28.0;;
21120;SDS011;12519;43.318;21.898;2022-08-25T13:09:38;36.0;;;28.0;;
21120;SDS011;12519;43.318;21.898;2022-08-25T13:14:58;36.0;;;26.0;;
21120;SDS011;12519;43.318;21.898;2022-08-25T13:19:37;36.0;;;26.0;;
21120;SDS011;12519;43.318;21.898;2022-08-25T13:24:26;37.0;;;24.0;;
21120;SDS011;12519;43.318;21.898;2022-08-25T13:29:22;37.0;;;24.0;;
21120;SDS011;12519;43.318;21.898;2022-08-25T13:34:16;35.0;;;26.0;;
21120;SDS011;12519;43.318;21.898;2022-08-25T13:39:16;35.0;;;26.0;;
21120;SDS011;12519;43.318;21.898;2022-08-25T13:43:56;33.0;;;27.0;;
21120;SDS011;12519;43.318;21.898;2022-08-25T13:48:40;33.0;;;27.0;;
21120;SDS011;12519;43.318;21.898;2022-08-25T13:53:25;34.0;;;26.0;;
21120;SDS011;12519;43.318;21.898;2022-08-25T13:58:16;34.0;;;26.0;;
21120;SDS011;12519;43.318;21.898;2022-08-25T14:03:03;35.0;;;26.0;;
21120;SDS011;12519;43.318;21.898;2022-08-25T14:07:52;35.0;;;26.0;;
21120;SDS011;12519;43.318;21.898;2022-08-25T14:12:42;36.0;;;24.0;;
21120;SDS011;12519;43.318;21.898;2022-08-25T14:17:22;36.0;;;24.0;;
21120;SDS011;12519;43.318;21.898;2022-08-25T14:22:02;36.0;;;23.0;;
21120;SDS011;12519;43.318;21.898;2022-08-25T14:26:39;36.0;;;23.0;;
21120;SDS011;12519;43.318;21.898;2022-08-25T14:31:32;34.0;;;24.0;;
21120;SDS011;12519;43.318;21.898;2022-08-25T14:36:16;34.0;;;24.0;;
21120;SDS011;12519;43.318;21.898;2022-08-25T14:40:54;34.0;;;24.0;;
21120;SDS011;12519;43.318;21.898;2022-08-25T14:45:34;33.0;;;26.0;;
21120;SDS011;12519;43.318;21.898;2022-08-25T14:50:21;33.0;;;26.0;;
21120;SDS011;12519;43.318;21.898;2022-08-25T14:54:59;32.0;;;24.0;;
21120;SDS011;12519;43.318;21.898;2022-08-25T14:59:37;32.0;;;24.0;;
21120;SDS011;12519;43.318;21.898;2022-08-25T15:04:24;31.0;;;21.0;;
21120;SDS011;12519;43.318;21.898;2022-08-25T15:09:07;31.0;;;21.0;;
21120;SDS011;12519;43.318;21.898;2022-08-25T15:13:52;26.0;;;20.0;;
21120;SDS011;12519;43.318;21.898;2022-08-25T15:18:34;26.0;;;20.0;;
21120;SDS011;12519;43.318;21.898;2022-08-25T15:23:12;22.0;;;18.0;;
21120;SDS011;12519;43.318;21.898;2022-08-25T15:27:50;22.0;;;18.0;;
21120;SDS011;12519;43.318;21.898;2022-08-25T15:32:28;22.0;;;18.0;;
21120;SDS011;12519;43.318;21.898;2022-08-25T15:37:14;22.0;;;18.0;;
21120;SDS011;12519;43.318;21.898;2022-08-25T15:41:53;22.0;;;18.0;;
21120;SDS011;12519;43.318;21.898;2022-08-25T15:46:33;22.0;;;18.0;;
21120;SDS011;12519;43.318;21.898;2022-08-25T15:51:17;22.0;;;18.0;;
21120;SDS011;12519;43.318;21.898;2022-08-25T15:55:55;21.0;;;18.0;;
21120;SDS011;12519;43.318;21.898;2022-08-25T16:00:32;21.0;;;18.0;;
21120;SDS011;12519;43.318;21.898;2022-08-25T16:05:10;20.0;;;19.0;;
21120;SDS011;12519;43.318;21.898;2022-08-25T16:09:46;20.0;;;19.0;;
21120;SDS011;12519;43.318;21.898;2022-08-25T16:14:23;23.0;;;20.0;;
21120;SDS011;12519;43.318;21.898;2022-08-25T16:19:02;23.0;;;20.0;;
21120;SDS011;12519;43.318;21.898;2022-08-25T16:23:40;26.0;;;21.0;;
21120;SDS011;12519;43.318;21.898;2022-08-25T16:28:17;26.0;;;21.0;;
21120;SDS011;12519;43.318;21.898;2022-08-25T16:32:54;24.0;;;21.0;;
21120;SDS011;12519;43.318;21.898;2022-08-25T16:37:33;24.0;;;21.0;;
21120;SDS011;12519;43.318;21.898;2022-08-25T16:42:12;23.0;;;21.0;;
21120;SDS011;12519;43.318;21.898;2022-08-25T16:46:50;23.0;;;21.0;;
21120;SDS011;12519;43.318;21.898;2022-08-25T16:51:28;22.0;;;20.0;;
21120;SDS011;12519;43.318;21.898;2022-08-25T16:56:07;22.0;;;20.0;;
21120;SDS011;12519;43.318;21.898;2022-08-25T17:00:44;22.0;;;20.0;;
21120;SDS011;12519;43.318;21.898;2022-08-25T17:05:21;21.0;;;18.0;;
21120;SDS011;12519;43.318;21.898;2022-08-25T17:09:58;21.0;;;18.0;;
21120;SDS011;12519;43.318;21.898;2022-08-25T17:14:36;22.0;;;18.0;;
21120;SDS011;12519;43.318;21.898;2022-08-25T17:19:14;22.0;;;18.0;;
21120;SDS011;12519;43.318;21.898;2022-08-25T17:23:55;23.0;;;19.0;;
21120;SDS011;12519;43.318;21.898;2022-08-25T17:28:33;23.0;;;19.0;;
21120;SDS011;12519;43.318;21.898;2022-08-25T17:33:11;28.0;;;21.0;;
21120;SDS011;12519;43.318;21.898;2022-08-25T17:37:52;28.0;;;21.0;;
21120;SDS011;12519;43.318;21.898;2022-08-25T17:42:30;33.0;;;23.0;;
21120;SDS011;12519;43.318;21.898;2022-08-25T17:47:07;33.0;;;23.0;;
21120;SDS011;12519;43.318;21.898;2022-08-25T17:51:45;30.0;;;22.0;;
21120;SDS011;12519;43.318;21.898;2022-08-25T17:56:26;30.0;;;22.0;;
21120;SDS011;12519;43.318;21.898;2022-08-25T18:01:12;30.0;;;22.0;;
21120;SDS011;12519;43.318;21.898;2022-08-25T18:06:03;26.0;;;20.0;;
21120;SDS011;12519;43.318;21.898;2022-08-25T18:10:45;26.0;;;20.0;;
21120;SDS011;12519;43.318;21.898;2022-08-25T18:15:25;25.0;;;20.0;;
21120;SDS011;12519;43.318;21.898;2022-08-25T18:20:10;25.0;;;20.0;;
21120;SDS011;12519;43.318;21.898;2022-08-25T18:24:51;24.0;;;21.0;;
21120;SDS011;12519;43.318;21.898;2022-08-25T18:29:28;24.0;;;21.0;;
21120;SDS011;12519;43.318;21.898;2022-08-25T18:34:06;23.0;;;20.0;;
21120;SDS011;12519;43.318;21.898;2022-08-25T18:38:43;23.0;;;20.0;;
21120;SDS011;12519;43.318;21.898;2022-08-25T18:43:20;22.0;;;19.0;;
21120;SDS011;12519;43.318;21.898;2022-08-25T18:47:58;22.0;;;19.0;;
21120;SDS011;12519;43.318;21.898;2022-08-25T18:52:35;26.0;;;20.0;;
21120;SDS011;12519;43.318;21.898;2022-08-25T18:57:12;26.0;;;20.0;;
21120;SDS011;12519;43.318;21.898;2022-08-25T19:01:51;30.0;;;22.0;;
21120;SDS011;12519;43.318;21.898;2022-08-25T19:06:29;30.0;;;22.0;;
21120;SDS011;12519;43.318;21.898;2022-08-25T19:11:09;30.0;;;22.0;;
21120;SDS011;12519;43.318;21.898;2022-08-25T19:15:46;27.0;;;22.0;;
21120;SDS011;12519;43.318;21.898;2022-08-25T19:20:25;27.0;;;22.0;;
21120;SDS011;12519;43.318;21.898;2022-08-25T19:25:08;24.0;;;21.0;;
21120;SDS011;12519;43.318;21.898;2022-08-25T19:29:47;24.0;;;21.0;;
21120;SDS011;12519;43.318;21.898;2022-08-25T19:34:35;22.0;;;20.0;;
21120;SDS011;12519;43.318;21.898;2022-08-25T19:39:22;22.0;;;20.0;;
21120;SDS011;12519;43.318;21.898;2022-08-25T19:44:01;21.0;;;19.0;;
21120;SDS011;12519;43.318;21.898;2022-08-25T19:48:40;21.0;;;19.0;;
21120;SDS011;12519;43.318;21.898;2022-08-25T19:53:18;24.0;;;20.0;;
21120;SDS011;12519;43.318;21.898;2022-08-25T19:57:57;24.0;;;20.0;;
21120;SDS011;12519;43.318;21.898;2022-08-25T20:02:35;27.0;;;20.0;;
21120;SDS011;12519;43.318;21.898;2022-08-25T20:07:13;27.0;;;20.0;;
21120;SDS011;12519;43.318;21.898;2022-08-25T20:11:56;24.0;;;18.0;;
21120;SDS011;12519;43.318;21.898;2022-08-25T20:16:34;24.0;;;18.0;;
21120;SDS011;12519;43.318;21.898;2022-08-25T20:21:14;24.0;;;18.0;;
21120;SDS011;12519;43.318;21.898;2022-08-25T20:25:51;20.0;;;16.0;;
21120;SDS011;12519;43.318;21.898;2022-08-25T20:30:29;20.0;;;16.0;;
21120;SDS011;12519;43.318;21.898;2022-08-25T20:35:10;19.0;;;16.0;;
21120;SDS011;12519;43.318;21.898;2022-08-25T20:39:53;19.0;;;16.0;;
21120;SDS011;12519;43.318;21.898;2022-08-25T20:44:31;18.0;;;16.0;;
21120;SDS011;12519;43.318;21.898;2022-08-25T20:49:14;18.0;;;16.0;;
21120;SDS011;12519;43.318;21.898;2022-08-25T20:53:52;18.0;;;16.0;;
21120;SDS011;12519;43.318;21.898;2022-08-25T20:58:30;18.0;;;16.0;;
21120;SDS011;12519;43.318;21.898;2022-08-25T21:03:07;19.0;;;16.0;;
21120;SDS011;12519;43.318;21.898;2022-08-25T21:07:45;19.0;;;16.0;;
21120;SDS011;12519;43.318;21.898;2022-08-25T21:12:22;18.0;;;16.0;;
21120;SDS011;12519;43.318;21.898;2022-08-25T21:16:59;18.0;;;16.0;;
21120;SDS011;12519;43.318;21.898;2022-08-25T21:21:37;18.0;;;16.0;;
21120;SDS011;12519;43.318;21.898;2022-08-25T21:26:18;16.0;;;15.0;;
21120;SDS011;12519;43.318;21.898;2022-08-25T21:31:05;16.0;;;15.0;;
21120;SDS011;12519;43.318;21.898;2022-08-25T21:35:44;16.0;;;14.0;;
21120;SDS011;12519;43.318;21.898;2022-08-25T21:40:21;16.0;;;14.0;;
21120;SDS011;12519;43.318;21.898;2022-08-25T21:44:58;17.0;;;14.0;;
21120;SDS011;12519;43.318;21.898;2022-08-25T21:49:34;17.0;;;14.0;;
21120;SDS011;12519;43.318;21.898;2022-08-25T21:54:15;16.0;;;14.0;;
21120;SDS011;12519;43.318;21.898;2022-08-25T21:58:53;16.0;;;14.0;;
21120;SDS011;12519;43.318;21.898;2022-08-25T22:03:30;16.0;;;15.0;;
21120;SDS011;12519;43.318;21.898;2022-08-25T22:08:08;16.0;;;15.0;;
21120;SDS011;12519;43.318;21.898;2022-08-25T22:12:46;20.0;;;16.0;;
21120;SDS011;12519;43.318;21.898;2022-08-25T22:17:24;20.0;;;16.0;;
21120;SDS011;12519;43.318;21.898;2022-08-25T22:22:01;23.0;;;16.0;;
21120;SDS011;12519;43.318;21.898;2022-08-25T22:26:39;23.0;;;16.0;;
21120;SDS011;12519;43.318;21.898;2022-08-25T22:31:16;23.0;;;16.0;;
21120;SDS011;12519;43.318;21.898;2022-08-25T22:35:55;19.0;;;15.0;;
21120;SDS011;12519;43.318;21.898;2022-08-25T22:40:35;19.0;;;15.0;;
21120;SDS011;12519;43.318;21.898;2022-08-25T22:45:16;15.0;;;14.0;;
21120;SDS011;12519;43.318;21.898;2022-08-25T22:49:56;15.0;;;14.0;;
21120;SDS011;12519;43.318;21.898;2022-08-25T22:54:35;17.0;;;14.0;;
21120;SDS011;12519;43.318;21.898;2022-08-25T22:59:14;17.0;;;14.0;;
21120;SDS011;12519;43.318;21.898;2022-08-25T23:03:50;19.0;;;14.0;;
21120;SDS011;12519;43.318;21.898;2022-08-25T23:08:28;19.0;;;14.0;;
21120;SDS011;12519;43.318;21.898;2022-08-25T23:13:06;18.0;;;14.0;;
21120;SDS011;12519;43.318;21.898;2022-08-25T23:17:43;18.0;;;14.0;;
21120;SDS011;12519;43.318;21.898;2022-08-25T23:22:21;16.0;;;15.0;;
21120;SDS011;12519;43.318;21.898;2022-08-25T23:27:02;16.0;;;15.0;;
21120;SDS011;12519;43.318;21.898;2022-08-25T23:31:56;16.0;;;15.0;;
21120;SDS011;12519;43.318;21.898;2022-08-25T23:36:37;16.0;;;14.0;;
21120;SDS011;12519;43.318;21.898;2022-08-25T23:41:20;16.0;;;14.0;;
21120;SDS011;12519;43.318;21.898;2022-08-25T23:46:03;17.0;;;13.0;;
21120;SDS011;12519;43.318;21.898;2022-08-25T23:50:46;17.0;;;13.0;;
21120;SDS011;12519;43.318;21.898;2022-08-25T23:55:24;16.0;;;14.0;;
